sensor_id;sensor_type;location;lat;lon;timestamp;temperature;humidity
5023;DHT22;2530;47.990;7.866;2023-07-08T00:00:46;21.10;99.90
5023;DHT22;2530;47.990;7.866;2023-07-08T00:10:22;21.20;99.90
5023;DHT22;2530;47.990;7.866;2023-07-08T00:16:48;21.10;99.90
5023;DHT22;2530;47.990;7.866;2023-07-08T00:26:11;21.30;99.90
5023;DHT22;2530;47.990;7.866;2023-07-08T00:29:30;21.00;99.90
5023;DHT22;2530;47.990;7.866;2023-07-08T00:32:18;21.00;99.90
5023;DHT22;2530;47.990;7.866;2023-07-08T00:38:32;20.60;99.90
5023;DHT22;2530;47.990;7.866;2023-07-08T01:12:19;21.00;99.90
5023;DHT22;2530;47.990;7.866;2023-07-08T01:15:35;20.90;99.90
5023;DHT22;2530;47.990;7.866;2023-07-08T01:19:03;22.20;99.90
5023;DHT22;2530;47.990;7.866;2023-07-08T01:22:22;20.80;99.90
5023;DHT22;2530;47.990;7.866;2023-07-08T01:31:58;20.90;99.90
5023;DHT22;2530;47.990;7.866;2023-07-08T01:42:03;21.00;99.90
5023;DHT22;2530;47.990;7.866;2023-07-08T01:51:28;20.80;99.90
5023;DHT22;2530;47.990;7.866;2023-07-08T01:54:30;21.70;99.90
5023;DHT22;2530;47.990;7.866;2023-07-08T01:57:30;20.80;99.90
5023;DHT22;2530;47.990;7.866;2023-07-08T02:04:20;20.60;99.90
5023;DHT22;2530;47.990;7.866;2023-07-08T02:07:51;20.90;99.90
5023;DHT22;2530;47.990;7.866;2023-07-08T02:14:07;20.70;99.90
5023;DHT22;2530;47.990;7.866;2023-07-08T02:17:26;20.60;99.90
5023;DHT22;2530;47.990;7.866;2023-07-08T02:20:35;20.80;99.90
5023;DHT22;2530;47.990;7.866;2023-07-08T02:26:10;20.90;99.90
5023;DHT22;2530;47.990;7.866;2023-07-08T02:35:43;21.70;99.90
5023;DHT22;2530;47.990;7.866;2023-07-08T02:38:19;21.80;99.90
5023;DHT22;2530;47.990;7.866;2023-07-08T02:40:56;21.90;99.90
5023;DHT22;2530;47.990;7.866;2023-07-08T02:43:50;21.80;99.90
5023;DHT22;2530;47.990;7.866;2023-07-08T02:47:33;22.10;99.90
5023;DHT22;2530;47.990;7.866;2023-07-08T02:49:47;21.60;99.90
5023;DHT22;2530;47.990;7.866;2023-07-08T02:52:26;21.70;99.90
5023;DHT22;2530;47.990;7.866;2023-07-08T02:55:00;22.10;99.90
5023;DHT22;2530;47.990;7.866;2023-07-08T02:57:59;23.00;99.90
5023;DHT22;2530;47.990;7.866;2023-07-08T03:29:54;21.30;99.90
5023;DHT22;2530;47.990;7.866;2023-07-08T03:32:59;21.50;99.90
5023;DHT22;2530;47.990;7.866;2023-07-08T03:35:25;21.90;99.90
5023;DHT22;2530;47.990;7.866;2023-07-08T03:37:52;22.10;99.90
5023;DHT22;2530;47.990;7.866;2023-07-08T03:40:18;22.50;99.90
5023;DHT22;2530;47.990;7.866;2023-07-08T03:42:43;22.50;99.90
5023;DHT22;2530;47.990;7.866;2023-07-08T03:45:09;22.60;99.90
5023;DHT22;2530;47.990;7.866;2023-07-08T03:47:35;22.60;99.90
5023;DHT22;2530;47.990;7.866;2023-07-08T03:50:01;22.60;99.90
5023;DHT22;2530;47.990;7.866;2023-07-08T03:52:26;22.70;99.90
5023;DHT22;2530;47.990;7.866;2023-07-08T03:54:52;22.70;99.90
5023;DHT22;2530;47.990;7.866;2023-07-08T03:57:17;22.80;99.90
5023;DHT22;2530;47.990;7.866;2023-07-08T03:59:43;22.80;99.90
5023;DHT22;2530;47.990;7.866;2023-07-08T04:02:10;22.70;99.90
5023;DHT22;2530;47.990;7.866;2023-07-08T04:04:36;22.40;99.90
5023;DHT22;2530;47.990;7.866;2023-07-08T04:07:03;22.10;99.90
5023;DHT22;2530;47.990;7.866;2023-07-08T04:09:29;22.00;99.90
5023;DHT22;2530;47.990;7.866;2023-07-08T04:11:54;21.90;99.90
5023;DHT22;2530;47.990;7.866;2023-07-08T04:14:20;21.80;99.90
5023;DHT22;2530;47.990;7.866;2023-07-08T04:17:12;21.70;99.90
5023;DHT22;2530;47.990;7.866;2023-07-08T04:19:38;21.60;99.90
5023;DHT22;2530;47.990;7.866;2023-07-08T04:22:09;21.30;99.90
5023;DHT22;2530;47.990;7.866;2023-07-08T04:24:36;20.90;99.90
5023;DHT22;2530;47.990;7.866;2023-07-08T04:27:02;20.70;99.90
5023;DHT22;2530;47.990;7.866;2023-07-08T04:29:28;20.70;99.90
5023;DHT22;2530;47.990;7.866;2023-07-08T04:31:53;20.60;99.90
5023;DHT22;2530;47.990;7.866;2023-07-08T04:34:19;20.60;99.90
5023;DHT22;2530;47.990;7.866;2023-07-08T04:36:45;21.10;99.90
5023;DHT22;2530;47.990;7.866;2023-07-08T04:39:11;21.00;99.90
5023;DHT22;2530;47.990;7.866;2023-07-08T04:41:37;21.00;99.90
5023;DHT22;2530;47.990;7.866;2023-07-08T04:44:10;20.80;99.90
5023;DHT22;2530;47.990;7.866;2023-07-08T04:46:48;20.20;99.90
5023;DHT22;2530;47.990;7.866;2023-07-08T04:49:16;19.80;99.90
5023;DHT22;2530;47.990;7.866;2023-07-08T04:51:42;19.50;99.90
5023;DHT22;2530;47.990;7.866;2023-07-08T04:54:08;19.50;99.90
5023;DHT22;2530;47.990;7.866;2023-07-08T04:59:04;19.80;99.90
5023;DHT22;2530;47.990;7.866;2023-07-08T05:01:30;19.90;99.90
5023;DHT22;2530;47.990;7.866;2023-07-08T05:03:56;19.70;99.90
5023;DHT22;2530;47.990;7.866;2023-07-08T05:06:22;19.50;99.90
5023;DHT22;2530;47.990;7.866;2023-07-08T05:08:47;19.70;99.90
5023;DHT22;2530;47.990;7.866;2023-07-08T05:11:13;19.50;99.90
5023;DHT22;2530;47.990;7.866;2023-07-08T05:13:38;19.70;99.90
5023;DHT22;2530;47.990;7.866;2023-07-08T05:16:04;19.70;99.90
5023;DHT22;2530;47.990;7.866;2023-07-08T05:18:30;19.50;99.90
5023;DHT22;2530;47.990;7.866;2023-07-08T05:20:55;19.30;99.90
5023;DHT22;2530;47.990;7.866;2023-07-08T05:23:21;19.00;99.90
5023;DHT22;2530;47.990;7.866;2023-07-08T05:25:47;18.80;99.90
5023;DHT22;2530;47.990;7.866;2023-07-08T05:28:13;18.70;99.90
5023;DHT22;2530;47.990;7.866;2023-07-08T05:30:40;18.60;99.90
5023;DHT22;2530;47.990;7.866;2023-07-08T05:33:06;18.90;99.90
5023;DHT22;2530;47.990;7.866;2023-07-08T05:35:32;18.80;99.90
5023;DHT22;2530;47.990;7.866;2023-07-08T05:37:57;18.60;99.90
5023;DHT22;2530;47.990;7.866;2023-07-08T05:40:23;18.80;99.90
5023;DHT22;2530;47.990;7.866;2023-07-08T05:42:48;18.60;99.90
5023;DHT22;2530;47.990;7.866;2023-07-08T05:45:14;18.80;99.90
5023;DHT22;2530;47.990;7.866;2023-07-08T05:47:39;18.90;99.90
5023;DHT22;2530;47.990;7.866;2023-07-08T05:50:05;18.80;99.90
5023;DHT22;2530;47.990;7.866;2023-07-08T05:52:31;18.80;99.90
5023;DHT22;2530;47.990;7.866;2023-07-08T05:54:57;18.70;99.90
5023;DHT22;2530;47.990;7.866;2023-07-08T05:57:22;18.40;99.90
5023;DHT22;2530;47.990;7.866;2023-07-08T05:59:51;18.20;99.90
5023;DHT22;2530;47.990;7.866;2023-07-08T06:02:17;18.10;99.90
5023;DHT22;2530;47.990;7.866;2023-07-08T06:04:45;18.00;99.90
5023;DHT22;2530;47.990;7.866;2023-07-08T06:07:10;18.10;99.90
5023;DHT22;2530;47.990;7.866;2023-07-08T06:09:36;18.30;99.90
5023;DHT22;2530;47.990;7.866;2023-07-08T06:12:01;18.40;99.90
5023;DHT22;2530;47.990;7.866;2023-07-08T06:14:27;18.40;99.90
5023;DHT22;2530;47.990;7.866;2023-07-08T06:16:53;18.30;99.90
5023;DHT22;2530;47.990;7.866;2023-07-08T06:19:20;18.40;99.90
5023;DHT22;2530;47.990;7.866;2023-07-08T06:21:45;18.40;99.90
5023;DHT22;2530;47.990;7.866;2023-07-08T06:24:11;18.60;99.90
5023;DHT22;2530;47.990;7.866;2023-07-08T06:26:36;18.80;99.90
5023;DHT22;2530;47.990;7.866;2023-07-08T06:29:03;18.80;99.90
5023;DHT22;2530;47.990;7.866;2023-07-08T06:31:29;18.80;99.90
5023;DHT22;2530;47.990;7.866;2023-07-08T06:33:54;18.50;99.90
5023;DHT22;2530;47.990;7.866;2023-07-08T06:36:20;18.50;99.90
5023;DHT22;2530;47.990;7.866;2023-07-08T06:38:45;18.70;99.90
5023;DHT22;2530;47.990;7.866;2023-07-08T06:41:11;18.70;99.90
5023;DHT22;2530;47.990;7.866;2023-07-08T06:43:36;18.80;99.90
5023;DHT22;2530;47.990;7.866;2023-07-08T06:46:02;18.90;99.90
5023;DHT22;2530;47.990;7.866;2023-07-08T06:48:27;19.00;99.90
5023;DHT22;2530;47.990;7.866;2023-07-08T06:50:53;18.90;99.90
5023;DHT22;2530;47.990;7.866;2023-07-08T06:53:18;19.00;99.90
5023;DHT22;2530;47.990;7.866;2023-07-08T06:55:44;19.20;99.90
5023;DHT22;2530;47.990;7.866;2023-07-08T06:58:10;19.40;99.90
5023;DHT22;2530;47.990;7.866;2023-07-08T07:00:36;19.50;99.90
5023;DHT22;2530;47.990;7.866;2023-07-08T07:03:01;19.50;99.90
5023;DHT22;2530;47.990;7.866;2023-07-08T07:05:27;19.60;99.90
5023;DHT22;2530;47.990;7.866;2023-07-08T07:07:52;19.70;99.90
5023;DHT22;2530;47.990;7.866;2023-07-08T07:10:19;19.90;99.90
5023;DHT22;2530;47.990;7.866;2023-07-08T07:12:45;19.80;99.90
5023;DHT22;2530;47.990;7.866;2023-07-08T07:15:10;19.80;99.90
5023;DHT22;2530;47.990;7.866;2023-07-08T07:17:36;20.10;99.90
5023;DHT22;2530;47.990;7.866;2023-07-08T07:20:02;20.30;99.90
5023;DHT22;2530;47.990;7.866;2023-07-08T07:22:28;20.40;99.90
5023;DHT22;2530;47.990;7.866;2023-07-08T07:24:54;20.40;99.90
5023;DHT22;2530;47.990;7.866;2023-07-08T07:27:20;20.40;99.90
5023;DHT22;2530;47.990;7.866;2023-07-08T07:29:48;20.40;99.90
5023;DHT22;2530;47.990;7.866;2023-07-08T07:32:15;20.40;99.90
5023;DHT22;2530;47.990;7.866;2023-07-08T07:34:41;20.50;99.90
5023;DHT22;2530;47.990;7.866;2023-07-08T07:37:12;20.60;99.90
5023;DHT22;2530;47.990;7.866;2023-07-08T07:39:37;20.80;99.90
5023;DHT22;2530;47.990;7.866;2023-07-08T07:42:03;20.90;99.90
5023;DHT22;2530;47.990;7.866;2023-07-08T07:44:29;20.90;99.90
5023;DHT22;2530;47.990;7.866;2023-07-08T07:46:54;21.10;99.90
5023;DHT22;2530;47.990;7.866;2023-07-08T07:49:20;20.90;99.90
5023;DHT22;2530;47.990;7.866;2023-07-08T07:51:46;21.20;99.90
5023;DHT22;2530;47.990;7.866;2023-07-08T07:54:12;21.30;99.90
5023;DHT22;2530;47.990;7.866;2023-07-08T07:56:37;21.30;99.90
5023;DHT22;2530;47.990;7.866;2023-07-08T07:59:03;21.50;99.90
5023;DHT22;2530;47.990;7.866;2023-07-08T08:01:29;21.40;99.90
5023;DHT22;2530;47.990;7.866;2023-07-08T08:03:55;21.50;99.90
5023;DHT22;2530;47.990;7.866;2023-07-08T08:06:20;21.70;99.90
5023;DHT22;2530;47.990;7.866;2023-07-08T08:08:46;21.80;99.90
5023;DHT22;2530;47.990;7.866;2023-07-08T08:11:13;21.90;99.90
5023;DHT22;2530;47.990;7.866;2023-07-08T08:13:38;22.00;99.90
5023;DHT22;2530;47.990;7.866;2023-07-08T08:16:04;22.10;99.90
5023;DHT22;2530;47.990;7.866;2023-07-08T08:18:30;22.20;99.90
5023;DHT22;2530;47.990;7.866;2023-07-08T08:20:55;22.30;99.90
5023;DHT22;2530;47.990;7.866;2023-07-08T08:23:21;22.30;99.90
5023;DHT22;2530;47.990;7.866;2023-07-08T08:25:46;22.20;99.90
5023;DHT22;2530;47.990;7.866;2023-07-08T08:28:12;22.10;99.90
5023;DHT22;2530;47.990;7.866;2023-07-08T08:30:38;22.20;99.90
5023;DHT22;2530;47.990;7.866;2023-07-08T08:33:03;22.40;99.90
5023;DHT22;2530;47.990;7.866;2023-07-08T08:35:29;22.50;99.90
5023;DHT22;2530;47.990;7.866;2023-07-08T08:37:54;22.40;99.90
5023;DHT22;2530;47.990;7.866;2023-07-08T08:40:20;22.50;99.90
5023;DHT22;2530;47.990;7.866;2023-07-08T08:42:51;22.50;99.90
5023;DHT22;2530;47.990;7.866;2023-07-08T08:45:19;22.60;99.90
5023;DHT22;2530;47.990;7.866;2023-07-08T08:47:49;22.50;99.90
5023;DHT22;2530;47.990;7.866;2023-07-08T08:50:26;22.50;99.90
5023;DHT22;2530;47.990;7.866;2023-07-08T08:52:54;22.60;99.90
5023;DHT22;2530;47.990;7.866;2023-07-08T08:55:21;22.80;99.90
5023;DHT22;2530;47.990;7.866;2023-07-08T09:01:01;22.80;99.90
5023;DHT22;2530;47.990;7.866;2023-07-08T09:03:34;22.80;99.90
5023;DHT22;2530;47.990;7.866;2023-07-08T09:06:04;23.00;99.90
5023;DHT22;2530;47.990;7.866;2023-07-08T09:08:35;23.00;99.90
5023;DHT22;2530;47.990;7.866;2023-07-08T09:13:54;23.30;99.90
5023;DHT22;2530;47.990;7.866;2023-07-08T09:16:46;23.60;99.90
5023;DHT22;2530;47.990;7.866;2023-07-08T09:24:42;23.50;99.90
5023;DHT22;2530;47.990;7.866;2023-07-08T09:27:07;23.50;99.90
5023;DHT22;2530;47.990;7.866;2023-07-08T09:29:33;23.70;99.90
5023;DHT22;2530;47.990;7.866;2023-07-08T09:32:10;23.90;99.90
5023;DHT22;2530;47.990;7.866;2023-07-08T09:34:41;23.80;99.90
5023;DHT22;2530;47.990;7.866;2023-07-08T09:39:54;24.30;99.90
5023;DHT22;2530;47.990;7.866;2023-07-08T09:42:22;24.40;99.90
5023;DHT22;2530;47.990;7.866;2023-07-08T09:44:58;24.30;99.90
5023;DHT22;2530;47.990;7.866;2023-07-08T09:47:30;24.60;99.90
5023;DHT22;2530;47.990;7.866;2023-07-08T09:49:59;24.60;99.90
5023;DHT22;2530;47.990;7.866;2023-07-08T09:52:26;24.80;99.90
5023;DHT22;2530;47.990;7.866;2023-07-08T09:54:52;24.80;99.90
5023;DHT22;2530;47.990;7.866;2023-07-08T09:57:29;24.90;99.90
5023;DHT22;2530;47.990;7.866;2023-07-08T09:59:59;24.90;99.90
5023;DHT22;2530;47.990;7.866;2023-07-08T10:02:43;25.00;99.90
5023;DHT22;2530;47.990;7.866;2023-07-08T10:05:41;24.80;99.90
5023;DHT22;2530;47.990;7.866;2023-07-08T10:08:22;24.70;99.90
5023;DHT22;2530;47.990;7.866;2023-07-08T10:13:50;24.90;99.90
5023;DHT22;2530;47.990;7.866;2023-07-08T10:16:24;24.90;99.90
5023;DHT22;2530;47.990;7.866;2023-07-08T10:18:51;24.90;99.90
5023;DHT22;2530;47.990;7.866;2023-07-08T10:27:49;25.60;99.90
5023;DHT22;2530;47.990;7.866;2023-07-08T10:30:25;25.80;99.90
5023;DHT22;2530;47.990;7.866;2023-07-08T10:33:19;26.10;99.90
5023;DHT22;2530;47.990;7.866;2023-07-08T10:36:13;26.30;99.90
5023;DHT22;2530;47.990;7.866;2023-07-08T10:44:30;26.60;99.90
5023;DHT22;2530;47.990;7.866;2023-07-08T10:50:00;27.00;99.90
5023;DHT22;2530;47.990;7.866;2023-07-08T10:52:59;27.00;99.90
5023;DHT22;2530;47.990;7.866;2023-07-08T10:55:57;26.90;99.90
5023;DHT22;2530;47.990;7.866;2023-07-08T10:58:46;27.20;99.90
5023;DHT22;2530;47.990;7.866;2023-07-08T11:01:40;27.30;99.90
5023;DHT22;2530;47.990;7.866;2023-07-08T11:09:58;27.00;23.00
5023;DHT22;2530;47.990;7.866;2023-07-08T11:12:54;27.30;99.90
5023;DHT22;2530;47.990;7.866;2023-07-08T11:15:28;27.50;99.90
5023;DHT22;2530;47.990;7.866;2023-07-08T11:23:27;27.70;99.90
5023;DHT22;2530;47.990;7.866;2023-07-08T11:26:20;27.90;1.00
5023;DHT22;2530;47.990;7.866;2023-07-08T11:28:48;28.30;99.90
5023;DHT22;2530;47.990;7.866;2023-07-08T11:31:15;28.50;2.10
5023;DHT22;2530;47.990;7.866;2023-07-08T11:33:41;28.90;1.00
5023;DHT22;2530;47.990;7.866;2023-07-08T11:36:09;29.10;1.00
5023;DHT22;2530;47.990;7.866;2023-07-08T11:38:35;29.40;1.00
5023;DHT22;2530;47.990;7.866;2023-07-08T11:41:10;29.60;52.00
5023;DHT22;2530;47.990;7.866;2023-07-08T11:43:52;29.30;54.60
5023;DHT22;2530;47.990;7.866;2023-07-08T11:46:25;29.30;1.00
5023;DHT22;2530;47.990;7.866;2023-07-08T11:48:55;29.10;1.00
5023;DHT22;2530;47.990;7.866;2023-07-08T11:51:29;29.60;99.90
5023;DHT22;2530;47.990;7.866;2023-07-08T11:54:13;30.20;1.00
5023;DHT22;2530;47.990;7.866;2023-07-08T11:59:23;30.40;26.70
5023;DHT22;2530;47.990;7.866;2023-07-08T12:01:54;30.90;1.00
5023;DHT22;2530;47.990;7.866;2023-07-08T12:04:33;31.70;1.00
5023;DHT22;2530;47.990;7.866;2023-07-08T12:07:40;30.90;1.00
5023;DHT22;2530;47.990;7.866;2023-07-08T12:10:10;31.20;1.00
5023;DHT22;2530;47.990;7.866;2023-07-08T12:12:38;30.30;1.00
5023;DHT22;2530;47.990;7.866;2023-07-08T12:17:51;30.40;1.00
5023;DHT22;2530;47.990;7.866;2023-07-08T12:20:25;30.30;1.00
5023;DHT22;2530;47.990;7.866;2023-07-08T12:22:51;29.60;1.00
5023;DHT22;2530;47.990;7.866;2023-07-08T12:25:21;29.60;1.00
5023;DHT22;2530;47.990;7.866;2023-07-08T12:27:47;30.40;1.00
5023;DHT22;2530;47.990;7.866;2023-07-08T12:30:15;30.80;1.00
5023;DHT22;2530;47.990;7.866;2023-07-08T12:32:41;31.20;1.00
5023;DHT22;2530;47.990;7.866;2023-07-08T12:35:23;31.80;1.00
5023;DHT22;2530;47.990;7.866;2023-07-08T12:37:51;31.30;1.00
5023;DHT22;2530;47.990;7.866;2023-07-08T12:40:19;31.80;1.00
5023;DHT22;2530;47.990;7.866;2023-07-08T12:42:46;30.90;1.00
5023;DHT22;2530;47.990;7.866;2023-07-08T12:45:15;32.50;1.00
5023;DHT22;2530;47.990;7.866;2023-07-08T12:47:41;32.60;1.00
5023;DHT22;2530;47.990;7.866;2023-07-08T12:50:09;32.50;1.00
5023;DHT22;2530;47.990;7.866;2023-07-08T12:52:34;32.20;1.00
5023;DHT22;2530;47.990;7.866;2023-07-08T12:55:00;32.10;1.00
5023;DHT22;2530;47.990;7.866;2023-07-08T12:57:26;32.60;1.00
5023;DHT22;2530;47.990;7.866;2023-07-08T12:59:51;32.10;1.00
5023;DHT22;2530;47.990;7.866;2023-07-08T13:02:20;31.80;1.00
5023;DHT22;2530;47.990;7.866;2023-07-08T13:04:49;32.20;1.00
5023;DHT22;2530;47.990;7.866;2023-07-08T13:07:36;32.20;1.00
5023;DHT22;2530;47.990;7.866;2023-07-08T13:10:04;32.20;1.00
5023;DHT22;2530;47.990;7.866;2023-07-08T13:12:32;31.50;1.00
5023;DHT22;2530;47.990;7.866;2023-07-08T13:15:02;32.10;1.00
5023;DHT22;2530;47.990;7.866;2023-07-08T13:17:28;31.80;1.00
5023;DHT22;2530;47.990;7.866;2023-07-08T13:19:54;32.40;1.00
5023;DHT22;2530;47.990;7.866;2023-07-08T13:22:22;32.10;1.00
5023;DHT22;2530;47.990;7.866;2023-07-08T13:24:49;32.60;1.00
5023;DHT22;2530;47.990;7.866;2023-07-08T13:27:24;32.50;1.00
5023;DHT22;2530;47.990;7.866;2023-07-08T13:29:55;32.70;1.00
5023;DHT22;2530;47.990;7.866;2023-07-08T13:32:29;32.00;1.00
5023;DHT22;2530;47.990;7.866;2023-07-08T13:34:56;31.80;1.00
5023;DHT22;2530;47.990;7.866;2023-07-08T13:37:21;32.30;1.00
5023;DHT22;2530;47.990;7.866;2023-07-08T13:39:52;32.80;1.00
5023;DHT22;2530;47.990;7.866;2023-07-08T13:42:18;32.60;1.00
5023;DHT22;2530;47.990;7.866;2023-07-08T13:44:47;33.20;1.00
5023;DHT22;2530;47.990;7.866;2023-07-08T13:47:20;33.20;1.00
5023;DHT22;2530;47.990;7.866;2023-07-08T13:49:49;33.20;1.00
5023;DHT22;2530;47.990;7.866;2023-07-08T13:52:53;33.00;1.00
5023;DHT22;2530;47.990;7.866;2023-07-08T13:55:21;33.10;1.00
5023;DHT22;2530;47.990;7.866;2023-07-08T13:57:57;33.30;1.00
5023;DHT22;2530;47.990;7.866;2023-07-08T14:00:23;33.50;1.00
5023;DHT22;2530;47.990;7.866;2023-07-08T14:02:49;33.00;1.00
5023;DHT22;2530;47.990;7.866;2023-07-08T14:05:14;32.50;1.00
5023;DHT22;2530;47.990;7.866;2023-07-08T14:07:45;32.60;1.00
5023;DHT22;2530;47.990;7.866;2023-07-08T14:10:12;32.70;1.00
5023;DHT22;2530;47.990;7.866;2023-07-08T14:12:38;32.50;1.00
5023;DHT22;2530;47.990;7.866;2023-07-08T14:15:04;32.10;1.00
5023;DHT22;2530;47.990;7.866;2023-07-08T14:17:30;32.50;1.00
5023;DHT22;2530;47.990;7.866;2023-07-08T14:19:55;32.30;1.00
5023;DHT22;2530;47.990;7.866;2023-07-08T14:22:28;32.10;1.00
5023;DHT22;2530;47.990;7.866;2023-07-08T14:24:54;32.30;1.00
5023;DHT22;2530;47.990;7.866;2023-07-08T14:27:20;32.50;1.00
5023;DHT22;2530;47.990;7.866;2023-07-08T14:29:48;32.30;1.00
5023;DHT22;2530;47.990;7.866;2023-07-08T14:32:23;32.40;1.00
5023;DHT22;2530;47.990;7.866;2023-07-08T14:34:56;31.80;1.00
5023;DHT22;2530;47.990;7.866;2023-07-08T14:37:23;32.30;1.00
5023;DHT22;2530;47.990;7.866;2023-07-08T14:39:49;32.40;1.00
5023;DHT22;2530;47.990;7.866;2023-07-08T14:42:18;32.50;1.00
5023;DHT22;2530;47.990;7.866;2023-07-08T14:44:49;32.80;1.00
5023;DHT22;2530;47.990;7.866;2023-07-08T14:47:18;32.90;1.00
5023;DHT22;2530;47.990;7.866;2023-07-08T14:49:44;32.80;1.00
5023;DHT22;2530;47.990;7.866;2023-07-08T14:52:10;32.50;1.00
5023;DHT22;2530;47.990;7.866;2023-07-08T14:54:35;32.70;1.00
5023;DHT22;2530;47.990;7.866;2023-07-08T14:57:02;32.90;1.00
5023;DHT22;2530;47.990;7.866;2023-07-08T14:59:31;32.60;1.00
5023;DHT22;2530;47.990;7.866;2023-07-08T15:01:58;32.50;1.00
5023;DHT22;2530;47.990;7.866;2023-07-08T15:04:24;32.40;1.00
5023;DHT22;2530;47.990;7.866;2023-07-08T15:06:51;32.30;1.00
5023;DHT22;2530;47.990;7.866;2023-07-08T15:09:17;32.20;1.00
5023;DHT22;2530;47.990;7.866;2023-07-08T15:11:44;32.40;1.00
5023;DHT22;2530;47.990;7.866;2023-07-08T15:14:23;33.00;1.00
5023;DHT22;2530;47.990;7.866;2023-07-08T15:16:50;32.80;1.00
5023;DHT22;2530;47.990;7.866;2023-07-08T15:19:16;33.00;1.00
5023;DHT22;2530;47.990;7.866;2023-07-08T15:21:42;33.00;1.00
5023;DHT22;2530;47.990;7.866;2023-07-08T15:24:12;32.90;1.00
5023;DHT22;2530;47.990;7.866;2023-07-08T15:26:44;33.00;1.00
5023;DHT22;2530;47.990;7.866;2023-07-08T15:29:15;32.90;1.00
5023;DHT22;2530;47.990;7.866;2023-07-08T15:31:41;33.10;1.00
5023;DHT22;2530;47.990;7.866;2023-07-08T15:34:15;33.20;1.00
5023;DHT22;2530;47.990;7.866;2023-07-08T15:36:41;32.60;1.00
5023;DHT22;2530;47.990;7.866;2023-07-08T15:39:07;32.70;1.00
5023;DHT22;2530;47.990;7.866;2023-07-08T15:41:32;32.90;1.00
5023;DHT22;2530;47.990;7.866;2023-07-08T15:43:59;33.20;1.00
5023;DHT22;2530;47.990;7.866;2023-07-08T15:46:34;33.40;1.00
5023;DHT22;2530;47.990;7.866;2023-07-08T15:49:00;33.60;1.00
5023;DHT22;2530;47.990;7.866;2023-07-08T15:51:26;33.70;1.00
5023;DHT22;2530;47.990;7.866;2023-07-08T15:53:51;33.70;1.00
5023;DHT22;2530;47.990;7.866;2023-07-08T15:56:19;33.70;1.00
5023;DHT22;2530;47.990;7.866;2023-07-08T15:58:45;33.20;1.00
5023;DHT22;2530;47.990;7.866;2023-07-08T16:01:17;33.20;1.00
5023;DHT22;2530;47.990;7.866;2023-07-08T16:03:43;33.40;1.00
5023;DHT22;2530;47.990;7.866;2023-07-08T16:06:09;33.40;1.00
5023;DHT22;2530;47.990;7.866;2023-07-08T16:08:34;33.20;1.00
5023;DHT22;2530;47.990;7.866;2023-07-08T16:11:03;33.20;1.00
5023;DHT22;2530;47.990;7.866;2023-07-08T16:13:33;32.70;1.00
5023;DHT22;2530;47.990;7.866;2023-07-08T16:16:00;32.80;1.00
5023;DHT22;2530;47.990;7.866;2023-07-08T16:18:26;32.60;1.00
5023;DHT22;2530;47.990;7.866;2023-07-08T16:20:52;32.80;1.00
5023;DHT22;2530;47.990;7.866;2023-07-08T16:23:18;32.90;1.00
5023;DHT22;2530;47.990;7.866;2023-07-08T16:25:48;33.00;1.00
5023;DHT22;2530;47.990;7.866;2023-07-08T16:28:19;33.00;1.00
5023;DHT22;2530;47.990;7.866;2023-07-08T16:30:47;32.80;1.00
5023;DHT22;2530;47.990;7.866;2023-07-08T16:33:13;32.80;1.00
5023;DHT22;2530;47.990;7.866;2023-07-08T16:35:39;32.90;1.00
5023;DHT22;2530;47.990;7.866;2023-07-08T16:38:04;33.00;1.00
5023;DHT22;2530;47.990;7.866;2023-07-08T16:40:29;32.50;1.00
5023;DHT22;2530;47.990;7.866;2023-07-08T16:42:56;32.60;1.00
5023;DHT22;2530;47.990;7.866;2023-07-08T16:45:23;32.40;1.00
5023;DHT22;2530;47.990;7.866;2023-07-08T16:47:50;32.30;1.00
5023;DHT22;2530;47.990;7.866;2023-07-08T16:50:17;32.20;1.00
5023;DHT22;2530;47.990;7.866;2023-07-08T16:52:43;32.00;1.00
5023;DHT22;2530;47.990;7.866;2023-07-08T16:55:19;31.90;1.00
5023;DHT22;2530;47.990;7.866;2023-07-08T16:57:46;31.80;1.00
5023;DHT22;2530;47.990;7.866;2023-07-08T17:00:19;31.90;1.00
5023;DHT22;2530;47.990;7.866;2023-07-08T17:02:46;31.60;1.00
5023;DHT22;2530;47.990;7.866;2023-07-08T17:05:33;31.90;1.00
5023;DHT22;2530;47.990;7.866;2023-07-08T17:08:00;32.10;1.00
5023;DHT22;2530;47.990;7.866;2023-07-08T17:10:26;32.50;1.00
5023;DHT22;2530;47.990;7.866;2023-07-08T17:12:52;32.90;1.00
5023;DHT22;2530;47.990;7.866;2023-07-08T17:15:26;32.80;1.00
5023;DHT22;2530;47.990;7.866;2023-07-08T17:17:57;32.70;1.00
5023;DHT22;2530;47.990;7.866;2023-07-08T17:20:26;32.80;1.00
5023;DHT22;2530;47.990;7.866;2023-07-08T17:22:54;33.00;1.00
5023;DHT22;2530;47.990;7.866;2023-07-08T17:25:21;33.00;1.00
5023;DHT22;2530;47.990;7.866;2023-07-08T17:27:50;33.50;1.00
5023;DHT22;2530;47.990;7.866;2023-07-08T17:30:16;35.00;1.00
5023;DHT22;2530;47.990;7.866;2023-07-08T17:32:44;35.10;1.00
5023;DHT22;2530;47.990;7.866;2023-07-08T17:35:12;34.80;1.00
5023;DHT22;2530;47.990;7.866;2023-07-08T17:37:39;35.60;1.00
5023;DHT22;2530;47.990;7.866;2023-07-08T17:42:40;35.60;1.00
5023;DHT22;2530;47.990;7.866;2023-07-08T17:45:08;35.40;1.00
5023;DHT22;2530;47.990;7.866;2023-07-08T17:47:34;34.50;1.00
5023;DHT22;2530;47.990;7.866;2023-07-08T17:50:00;33.40;1.00
5023;DHT22;2530;47.990;7.866;2023-07-08T17:52:25;33.40;1.00
5023;DHT22;2530;47.990;7.866;2023-07-08T17:54:52;32.40;1.00
5023;DHT22;2530;47.990;7.866;2023-07-08T17:57:18;31.80;1.00
5023;DHT22;2530;47.990;7.866;2023-07-08T17:59:44;31.60;1.00
5023;DHT22;2530;47.990;7.866;2023-07-08T18:02:15;31.20;1.00
5023;DHT22;2530;47.990;7.866;2023-07-08T18:04:41;31.10;1.00
5023;DHT22;2530;47.990;7.866;2023-07-08T18:07:07;30.90;1.00
5023;DHT22;2530;47.990;7.866;2023-07-08T18:09:32;30.70;1.00
5023;DHT22;2530;47.990;7.866;2023-07-08T18:11:58;30.30;1.00
5023;DHT22;2530;47.990;7.866;2023-07-08T18:14:24;30.00;1.00
5023;DHT22;2530;47.990;7.866;2023-07-08T18:16:50;30.10;1.00
5023;DHT22;2530;47.990;7.866;2023-07-08T18:19:15;30.00;1.00
5023;DHT22;2530;47.990;7.866;2023-07-08T18:21:42;30.00;1.00
5023;DHT22;2530;47.990;7.866;2023-07-08T18:24:10;29.90;1.00
5023;DHT22;2530;47.990;7.866;2023-07-08T18:26:37;29.80;1.00
5023;DHT22;2530;47.990;7.866;2023-07-08T18:29:02;29.40;1.00
5023;DHT22;2530;47.990;7.866;2023-07-08T18:31:30;29.30;1.00
5023;DHT22;2530;47.990;7.866;2023-07-08T18:33:56;28.80;1.00
5023;DHT22;2530;47.990;7.866;2023-07-08T18:36:22;28.30;1.00
5023;DHT22;2530;47.990;7.866;2023-07-08T18:38:48;27.80;1.00
5023;DHT22;2530;47.990;7.866;2023-07-08T18:41:20;27.50;99.90
5023;DHT22;2530;47.990;7.866;2023-07-08T18:43:46;27.10;99.90
5023;DHT22;2530;47.990;7.866;2023-07-08T18:46:13;26.90;99.90
5023;DHT22;2530;47.990;7.866;2023-07-08T18:48:39;26.70;99.90
5023;DHT22;2530;47.990;7.866;2023-07-08T18:51:16;26.60;99.90
5023;DHT22;2530;47.990;7.866;2023-07-08T18:53:42;26.40;99.90
5023;DHT22;2530;47.990;7.866;2023-07-08T18:56:15;26.30;99.90
5023;DHT22;2530;47.990;7.866;2023-07-08T18:58:42;26.20;99.90
5023;DHT22;2530;47.990;7.866;2023-07-08T19:01:19;26.10;99.90
5023;DHT22;2530;47.990;7.866;2023-07-08T19:03:46;26.10;99.90
5023;DHT22;2530;47.990;7.866;2023-07-08T19:06:13;25.90;99.90
5023;DHT22;2530;47.990;7.866;2023-07-08T19:08:41;25.90;99.90
5023;DHT22;2530;47.990;7.866;2023-07-08T19:11:18;25.80;99.90
5023;DHT22;2530;47.990;7.866;2023-07-08T19:13:44;25.70;99.90
5023;DHT22;2530;47.990;7.866;2023-07-08T19:16:13;25.50;99.90
5023;DHT22;2530;47.990;7.866;2023-07-08T19:18:40;25.70;99.90
5023;DHT22;2530;47.990;7.866;2023-07-08T19:21:17;25.40;99.90
5023;DHT22;2530;47.990;7.866;2023-07-08T19:23:47;25.20;99.90
5023;DHT22;2530;47.990;7.866;2023-07-08T19:26:16;25.10;99.90